createdAt,value
2023-01-17T04:03:00.556Z,0.80
2023-01-17T04:05:27.700Z,0.80
2023-01-17T04:07:54.851Z,0.80
2023-01-17T04:10:22.031Z,0.80
2023-01-17T04:12:49.215Z,0.70
2023-01-17T04:15:16.472Z,0.50
2023-01-17T04:17:43.731Z,0.50
2023-01-17T04:20:21.555Z,0.50
2023-01-17T04:22:48.728Z,0.60
2023-01-17T04:25:16.121Z,0.50
2023-01-17T04:27:43.398Z,0.50
2023-01-17T04:30:11.296Z,0.50
2023-01-17T04:32:38.544Z,0.30
2023-01-17T04:35:07.154Z,0.40
2023-01-17T04:37:34.404Z,0.40
2023-01-17T04:40:01.623Z,0.30
2023-01-17T04:42:28.814Z,0.30
2023-01-17T04:44:55.969Z,0.30
2023-01-17T04:47:23.217Z,0.20
2023-01-17T04:49:50.541Z,0.30
2023-01-17T04:52:19.726Z,0.20
2023-01-17T04:54:49.490Z,0.10
2023-01-17T04:57:17.706Z,0.10
2023-01-17T04:59:45.652Z,0.10
2023-01-17T05:02:13.682Z,0.20
2023-01-17T05:04:40.903Z,0.30
2023-01-17T05:07:08.409Z,0.40
2023-01-17T05:09:35.559Z,0.50
2023-01-17T05:12:02.843Z,0.50
2023-01-17T05:14:30.219Z,0.50
2023-01-17T05:16:58.034Z,0.60
2023-01-17T05:19:26.791Z,0.60
2023-01-17T05:21:54.047Z,0.60
2023-01-17T05:24:21.530Z,0.60
2023-01-17T05:26:54.731Z,0.60
2023-01-17T05:29:22.346Z,0.60
2023-01-17T05:31:49.544Z,0.60
2023-01-17T05:34:17.371Z,0.60
2023-01-17T05:36:44.583Z,0.60
2023-01-17T05:39:11.740Z,0.40
2023-01-17T05:41:38.925Z,0.40
2023-01-17T05:44:06.176Z,0.50
2023-01-17T05:46:33.402Z,0.50
2023-01-17T05:49:00.641Z,0.50
2023-01-17T05:51:29.293Z,0.50
2023-01-17T05:53:56.441Z,0.40
2023-01-17T05:56:23.656Z,0.50
2023-01-17T05:58:50.907Z,0.50
2023-01-17T06:01:18.119Z,0.40
2023-01-17T06:03:45.344Z,0.40
2023-01-17T06:06:12.654Z,0.30
2023-01-17T06:08:39.876Z,0.20
2023-01-17T06:11:07.113Z,0.20
2023-01-17T06:13:34.479Z,0.20
2023-01-17T06:16:03.939Z,0.10
2023-01-17T06:18:32.054Z,0.10
2023-01-17T06:20:59.187Z,-0.10
2023-01-17T06:23:26.508Z,0.00
2023-01-17T06:25:53.704Z,0.00
2023-01-17T06:28:22.738Z,0.00
2023-01-17T06:30:50.172Z,0.00
2023-01-17T06:33:17.545Z,0.00
2023-01-17T06:35:50.038Z,0.00
2023-01-17T06:38:17.491Z,0.00
2023-01-17T06:40:44.828Z,-0.10
2023-01-17T06:43:11.987Z,-0.10
2023-01-17T06:45:39.604Z,-0.30
2023-01-17T06:48:07.260Z,-0.30
2023-01-17T06:50:34.998Z,-0.30
2023-01-17T06:53:04.956Z,-0.30
2023-01-17T06:55:33.712Z,-0.30
2023-01-17T06:58:02.689Z,-0.30
2023-01-17T07:00:34.947Z,-0.30
2023-01-17T07:03:02.526Z,-0.30
2023-01-17T07:05:29.804Z,-0.30
2023-01-17T07:07:57.824Z,-0.30
2023-01-17T07:10:25.024Z,-0.40
2023-01-17T07:12:57.475Z,-0.40
2023-01-17T07:15:24.696Z,-0.40
2023-01-17T07:17:51.899Z,-0.40
2023-01-17T07:20:19.196Z,-0.40
2023-01-17T07:22:46.415Z,-0.50
2023-01-17T07:25:13.650Z,-0.40
2023-01-17T07:27:40.793Z,-0.40
2023-01-17T07:30:09.319Z,-0.40
2023-01-17T07:32:37.236Z,-0.40
2023-01-17T07:35:05.219Z,-0.50
2023-01-17T07:37:32.516Z,-0.60
2023-01-17T07:40:02.489Z,-0.60
2023-01-17T07:42:29.730Z,-0.50
2023-01-17T07:44:56.913Z,-0.60
2023-01-17T07:47:24.851Z,-0.60
2023-01-17T07:49:52.007Z,-0.70
2023-01-17T07:52:19.192Z,-0.60
2023-01-17T07:54:46.369Z,-0.60
2023-01-17T07:57:13.549Z,-0.60
2023-01-17T07:59:40.708Z,-0.80
2023-01-17T08:02:18.161Z,-0.60
2023-01-17T08:04:45.914Z,-0.60
2023-01-17T08:07:14.037Z,-0.60
2023-01-17T08:09:42.808Z,-0.30
2023-01-17T08:12:10.374Z,-0.40
2023-01-17T08:14:37.565Z,-0.20
2023-01-17T08:17:13.188Z,-0.10
2023-01-17T08:19:40.618Z,0.00
2023-01-17T08:22:08.365Z,0.30
2023-01-17T08:24:35.572Z,0.40
2023-01-17T08:27:02.811Z,0.40
2023-01-17T08:29:29.954Z,0.40
2023-01-17T08:31:57.266Z,0.50
2023-01-17T08:34:24.544Z,0.60
2023-01-17T08:36:53.845Z,0.60
2023-01-17T08:39:21.812Z,0.60
2023-01-17T08:41:49.010Z,0.50
2023-01-17T08:44:16.313Z,0.60
2023-01-17T08:46:44.285Z,0.60
2023-01-17T08:49:12.108Z,0.80
2023-01-17T08:51:40.055Z,0.90
2023-01-17T08:54:09.478Z,1.10
2023-01-17T08:56:36.759Z,1.00
2023-01-17T08:59:04.173Z,1.10
2023-01-17T09:01:40.558Z,1.50
2023-01-17T09:04:09.837Z,1.50
2023-01-17T09:06:39.356Z,1.60
2023-01-17T09:09:07.964Z,1.60
2023-01-17T09:11:35.306Z,1.50
2023-01-17T09:14:04.106Z,1.50
2023-01-17T09:16:34.749Z,1.40
2023-01-17T09:19:02.021Z,1.40
2023-01-17T09:21:29.246Z,1.50
2023-01-17T09:23:56.430Z,1.60
2023-01-17T09:26:26.426Z,1.60
2023-01-17T09:28:54.207Z,1.70
2023-01-17T09:31:22.942Z,1.80
2023-01-17T09:33:51.415Z,1.90
2023-01-17T09:36:19.196Z,2.00
2023-01-17T09:38:46.984Z,2.10
2023-01-17T09:41:43.154Z,2.00
2023-01-17T09:44:22.453Z,2.10
2023-01-17T09:46:52.204Z,2.20
2023-01-17T09:49:19.323Z,2.50
2023-01-17T09:51:46.658Z,2.70
2023-01-17T09:54:22.880Z,2.80
2023-01-17T09:57:02.859Z,2.80
2023-01-17T09:59:45.830Z,3.00
2023-01-17T10:02:43.895Z,3.20
2023-01-17T10:05:32.288Z,3.30
2023-01-17T10:08:08.131Z,3.60
2023-01-17T10:11:01.477Z,3.90
2023-01-17T10:14:00.726Z,3.90
2023-01-17T10:16:53.087Z,3.90
2023-01-17T10:19:51.607Z,4.10
2023-01-17T10:22:39.891Z,4.30
2023-01-17T10:25:16.251Z,4.30
2023-01-17T10:27:59.263Z,4.50
2023-01-17T10:30:34.853Z,4.50
2023-01-17T10:33:16.798Z,4.50
2023-01-17T10:36:15.341Z,4.60
2023-01-17T10:38:48.008Z,4.60
2023-01-17T10:41:18.134Z,4.40
2023-01-17T10:44:08.662Z,4.30
2023-01-17T10:46:45.078Z,4.20
2023-01-17T10:49:18.067Z,4.20
2023-01-17T10:51:50.461Z,4.30
2023-01-17T10:54:36.971Z,4.30
2023-01-17T10:57:04.343Z,4.30
2023-01-17T10:59:33.801Z,4.20
2023-01-17T11:02:08.920Z,4.20
2023-01-17T11:04:41.831Z,4.20
2023-01-17T11:07:21.078Z,4.30
2023-01-17T11:09:53.573Z,4.10
2023-01-17T11:12:27.230Z,4.10
2023-01-17T11:15:21.955Z,4.00
2023-01-17T11:18:05.884Z,4.00
2023-01-17T11:20:40.371Z,3.90
2023-01-17T11:23:16.575Z,3.90
2023-01-17T11:26:04.997Z,3.90
2023-01-17T11:28:35.325Z,3.90
2023-01-17T11:31:16.470Z,3.90
2023-01-17T11:33:53.752Z,4.00
2023-01-17T11:36:29.108Z,4.00
2023-01-17T11:39:03.460Z,4.00
2023-01-17T11:41:40.289Z,4.10
2023-01-17T11:44:29.320Z,4.20
2023-01-17T11:47:14.394Z,4.20
2023-01-17T11:49:44.259Z,4.20
2023-01-17T11:52:24.409Z,4.40
2023-01-17T11:54:54.578Z,4.30
2023-01-17T11:57:33.305Z,4.30
2023-01-17T12:00:05.583Z,4.40
2023-01-17T12:03:05.785Z,4.40
2023-01-17T12:05:56.600Z,4.30
2023-01-17T12:08:54.028Z,4.30
2023-01-17T12:12:13.492Z,4.30
2023-01-17T12:14:52.503Z,4.30
2023-01-17T12:17:43.698Z,4.20
2023-01-17T12:20:24.808Z,4.20
2023-01-17T12:23:06.187Z,4.20
2023-01-17T12:26:06.882Z,4.20
2023-01-17T12:28:39.599Z,4.30
2023-01-17T12:31:38.763Z,4.40
2023-01-17T12:34:35.664Z,4.30
2023-01-17T12:37:21.336Z,4.30
2023-01-17T12:40:19.119Z,4.20
2023-01-17T12:43:03.368Z,4.20
2023-01-17T12:45:43.654Z,4.50
2023-01-17T12:48:18.565Z,4.60
2023-01-17T12:51:27.728Z,4.60
2023-01-17T12:54:01.289Z,4.70
2023-01-17T12:56:52.524Z,4.70
2023-01-17T12:59:27.801Z,4.60
2023-01-17T13:01:59.553Z,4.60
2023-01-17T13:05:06.522Z,4.60
2023-01-17T13:07:47.194Z,4.60
2023-01-17T13:10:47.979Z,4.60
2023-01-17T13:13:26.668Z,4.40
2023-01-17T13:15:56.775Z,4.40
2023-01-17T13:18:29.895Z,4.60
2023-01-17T13:21:21.745Z,4.70
2023-01-17T13:24:04.018Z,4.60
2023-01-17T13:26:41.381Z,4.50
2023-01-17T13:29:40.411Z,4.30
2023-01-17T13:32:11.087Z,4.10
2023-01-17T13:34:50.848Z,4.10
2023-01-17T13:37:38.442Z,4.10
2023-01-17T13:40:29.467Z,4.00
2023-01-17T13:43:00.899Z,3.80
2023-01-17T13:45:29.739Z,3.70
2023-01-17T13:48:18.799Z,3.60
2023-01-17T13:50:55.427Z,3.60
2023-01-17T13:53:34.715Z,3.60
2023-01-17T13:56:13.279Z,3.70
2023-01-17T13:58:54.558Z,3.70
2023-01-17T14:01:24.599Z,3.80
2023-01-17T14:03:51.986Z,3.90
2023-01-17T14:06:44.165Z,4.00
2023-01-17T14:09:27.786Z,4.00
2023-01-17T14:12:05.194Z,3.90
2023-01-17T14:14:46.725Z,4.00
2023-01-17T14:17:16.716Z,4.00
2023-01-17T14:19:50.456Z,3.90
2023-01-17T14:22:31.946Z,3.90
2023-01-17T14:25:09.749Z,3.80
2023-01-17T14:27:46.351Z,3.80
2023-01-17T14:30:48.644Z,3.90
2023-01-17T14:33:30.860Z,3.80
2023-01-17T14:36:04.598Z,3.70
2023-01-17T14:38:33.576Z,3.70
2023-01-17T14:41:02.800Z,3.70
2023-01-17T14:43:33.012Z,3.70
2023-01-17T14:46:25.174Z,3.70
2023-01-17T14:49:00.928Z,3.60
2023-01-17T14:51:28.811Z,3.60
2023-01-17T14:54:00.013Z,3.50
2023-01-17T14:56:29.184Z,3.50
2023-01-17T14:59:17.437Z,3.60
2023-01-17T15:02:07.278Z,3.40
2023-01-17T15:04:39.336Z,3.40
2023-01-17T15:07:07.604Z,3.40
2023-01-17T15:09:37.208Z,3.40
2023-01-17T15:12:08.295Z,3.30
2023-01-17T15:14:39.671Z,3.20
2023-01-17T15:17:10.612Z,3.00
2023-01-17T15:19:43.112Z,3.00
2023-01-17T15:22:11.304Z,3.00
2023-01-17T15:24:42.199Z,3.00
2023-01-17T15:27:15.177Z,2.90
2023-01-17T15:29:44.559Z,2.90
2023-01-17T15:32:22.981Z,2.80
2023-01-17T15:34:51.477Z,2.70
2023-01-17T15:37:29.032Z,2.70
2023-01-17T15:40:26.037Z,2.70
2023-01-17T15:42:59.286Z,2.60
2023-01-17T15:45:32.098Z,2.70
2023-01-17T15:48:38.645Z,2.80
2023-01-17T15:51:06.312Z,2.80
2023-01-17T15:53:38.822Z,2.90
2023-01-17T15:56:32.577Z,2.80
2023-01-17T15:59:27.153Z,2.80
2023-01-17T16:01:56.488Z,2.80
2023-01-17T16:04:42.243Z,2.80
2023-01-17T16:07:21.274Z,2.80
2023-01-17T16:09:49.670Z,2.80
2023-01-17T16:12:16.851Z,2.90
2023-01-17T16:14:59.591Z,3.00
2023-01-17T16:17:32.657Z,3.00
2023-01-17T16:20:00.071Z,3.10
2023-01-17T16:22:27.427Z,3.20
2023-01-17T16:24:58.883Z,3.20
2023-01-17T16:27:26.050Z,3.20
2023-01-17T16:29:55.672Z,3.30
2023-01-17T16:32:23.570Z,3.30
2023-01-17T16:34:50.986Z,3.10
2023-01-17T16:39:49.073Z,3.10
2023-01-17T16:42:16.585Z,3.20
2023-01-17T16:44:44.062Z,3.30
2023-01-17T16:47:11.320Z,3.30
2023-01-17T16:49:38.500Z,3.20
2023-01-17T16:52:05.660Z,3.10
2023-01-17T16:54:33.049Z,3.00
2023-01-17T16:57:00.256Z,3.00
2023-01-17T16:59:36.817Z,3.00
2023-01-17T17:02:15.150Z,3.10
2023-01-17T17:04:42.524Z,3.10
2023-01-17T17:07:09.757Z,3.00
2023-01-17T17:09:36.965Z,3.10
2023-01-17T17:12:05.072Z,3.10
2023-01-17T17:14:32.219Z,3.10
2023-01-17T17:17:02.293Z,3.00
2023-01-17T17:19:29.557Z,2.90
2023-01-17T17:22:01.501Z,2.90
2023-01-17T17:24:28.998Z,2.90
2023-01-17T17:26:56.245Z,3.00
2023-01-17T17:29:23.394Z,3.00
2023-01-17T17:31:50.553Z,3.10
2023-01-17T17:34:17.940Z,2.90
2023-01-17T17:36:45.370Z,2.90
2023-01-17T17:39:14.900Z,3.00
2023-01-17T17:41:43.739Z,3.00
2023-01-17T17:44:11.438Z,3.00
2023-01-17T17:46:39.061Z,3.00
2023-01-17T17:49:06.768Z,3.00
2023-01-17T17:51:35.941Z,3.10
2023-01-17T17:54:15.487Z,3.10
2023-01-17T17:56:46.510Z,3.10
2023-01-17T17:59:18.168Z,3.00
2023-01-17T18:01:46.379Z,2.90
2023-01-17T18:04:14.226Z,2.80
2023-01-17T18:06:41.938Z,2.80
2023-01-17T18:09:10.874Z,2.60
2023-01-17T18:11:39.904Z,2.60
2023-01-17T18:14:09.551Z,2.80
2023-01-17T18:16:41.461Z,2.60
2023-01-17T18:19:13.466Z,2.70
2023-01-17T18:21:40.786Z,2.80
2023-01-17T18:24:10.647Z,2.90
2023-01-17T18:26:43.351Z,3.00
2023-01-17T18:29:14.745Z,3.00
2023-01-17T18:31:43.631Z,3.00
2023-01-17T18:34:16.527Z,3.00
2023-01-17T18:36:44.429Z,3.10
2023-01-17T18:39:14.768Z,3.00
2023-01-17T18:41:42.691Z,3.10
2023-01-17T18:44:10.387Z,3.00
2023-01-17T18:46:40.178Z,3.00
2023-01-17T18:49:09.901Z,2.90
2023-01-17T18:51:37.281Z,2.80
2023-01-17T18:54:07.111Z,2.70
2023-01-17T18:56:35.353Z,2.70
2023-01-17T18:59:06.116Z,2.70
2023-01-17T19:01:35.880Z,2.70
2023-01-17T19:04:05.143Z,2.50
2023-01-17T19:06:41.255Z,2.40
2023-01-17T19:09:10.200Z,2.50
2023-01-17T19:11:37.993Z,2.20
2023-01-17T19:14:06.523Z,2.10
2023-01-17T19:16:36.855Z,2.10
2023-01-17T19:19:07.532Z,2.30
2023-01-17T19:21:35.209Z,2.30
2023-01-17T19:24:02.492Z,2.30
2023-01-17T19:26:29.995Z,2.20
2023-01-17T19:28:58.910Z,2.20
2023-01-17T19:31:30.958Z,2.30
2023-01-17T19:33:59.491Z,2.40
2023-01-17T19:36:31.012Z,2.40
2023-01-17T19:39:04.979Z,2.40
2023-01-17T19:41:34.559Z,2.30
2023-01-17T19:44:04.756Z,2.50
2023-01-17T19:46:36.015Z,2.50
2023-01-17T19:49:04.857Z,2.40
2023-01-17T19:51:32.162Z,2.40
2023-01-17T19:54:01.297Z,2.30
2023-01-17T19:56:30.038Z,2.30
2023-01-17T19:59:00.987Z,2.20
2023-01-17T20:01:30.585Z,2.20
2023-01-17T20:03:59.419Z,2.10
2023-01-17T20:06:29.205Z,1.90
2023-01-17T20:08:57.108Z,2.00
2023-01-17T20:11:25.482Z,1.90
2023-01-17T20:13:57.833Z,2.00
2023-01-17T20:16:27.535Z,1.80
2023-01-17T20:18:54.995Z,1.80
2023-01-17T20:21:24.719Z,1.80
2023-01-17T20:23:53.092Z,1.80
2023-01-17T20:26:29.622Z,1.90
2023-01-17T20:28:57.297Z,1.80
2023-01-17T20:31:25.614Z,1.90
2023-01-17T20:33:55.180Z,1.90
2023-01-17T20:36:25.329Z,1.80
2023-01-17T20:38:53.264Z,1.90
2023-01-17T20:41:30.582Z,1.90
2023-01-17T20:43:59.660Z,2.00
2023-01-17T20:46:29.380Z,2.00
2023-01-17T20:48:57.983Z,2.00
2023-01-17T20:51:28.692Z,2.10
2023-01-17T20:53:58.272Z,2.10
2023-01-17T20:56:25.679Z,2.00
2023-01-17T20:58:54.165Z,2.00
2023-01-17T21:01:22.694Z,2.00
2023-01-17T21:03:53.163Z,2.00
2023-01-17T21:06:21.654Z,1.90
2023-01-17T21:08:49.505Z,1.90
2023-01-17T21:11:22.487Z,1.90
2023-01-17T21:13:49.921Z,1.90
2023-01-17T21:16:20.255Z,1.80
2023-01-17T21:18:48.611Z,1.70
2023-01-17T21:21:24.509Z,1.70
2023-01-17T21:23:53.920Z,1.60
2023-01-17T21:26:22.774Z,1.60
2023-01-17T21:28:50.850Z,1.70
2023-01-17T21:31:26.647Z,1.60
2023-01-17T21:34:04.995Z,1.60
2023-01-17T21:36:34.796Z,1.60
2023-01-17T21:39:05.176Z,1.60
2023-01-17T21:41:35.107Z,1.60
2023-01-17T21:44:05.355Z,1.60
2023-01-17T21:46:35.433Z,1.60
2023-01-17T21:49:03.065Z,1.60
2023-01-17T21:51:49.154Z,1.50
2023-01-17T21:57:02.509Z,1.50
2023-01-17T21:59:32.466Z,1.50
